LNG Ondo — ZCDT5 — position and weather

sailwx.info

Track history (hours):
 
Tides and Currents Weather Stations Pressure Air Temp Water Temp Dewpoint Dewpoint Depression Visibility Wind Speed Wind Dir Waves Ship Positions

LNG Ondo

Last reported at 2018-Feb-19 08:29 UTC. Time now 2018-Feb-20 23:42 UTC.
Position N 46°53' W 002°51'.

Length 288 m; draft 9.3 m.

Type: Ship (hazmat cat B). MMSI: 310550000.

Date/timePositionNaut miles runAvg speedWind from/ knotsBaromVisibWave heightAir tempDewpointWater temp
2018-Feb-19 08:29N 46°53' W 002°51'919.6
2018-Feb-19 08:00N 46°60' W 002°42'1018.2
2018-Feb-19 07:28N 47°04' W 002°29'613.2
2018-Feb-19 07:00N 47°08' W 002°22'510.4
2018-Feb-19 06:30N 47°12' W 002°17'612.5
2018-Feb-19 06:00N 47°16' W 002°11'2 4.9
2018-Feb-19 05:30N 47°18' W 002°08'0 0.1
2018-Feb-19 05:00N 47°18' W 002°08'0 0.0
2018-Feb-18 20:09N 47°18' W 002°08'0 0.0
2018-Feb-18 19:33N 47°18' W 002°08'0 0.0
2018-Feb-18 19:21N 47°18' W 002°08'0 0.0
2018-Feb-18 18:57N 47°18' W 002°08'0 0.0
2018-Feb-18 17:45N 47°18' W 002°08'0 0.0
2018-Feb-18 17:27N 47°18' W 002°08'0 0.0
2018-Feb-18 15:21N 47°18' W 002°08'0 0.0
2018-Feb-18 14:57N 47°18' W 002°08'0 0.0
2018-Feb-18 09:33N 47°18' W 002°08'0 0.0
2018-Feb-18 04:45N 47°18' W 002°08'0 0.0
2018-Feb-18 04:30N 47°18' W 002°08'0 0.3
2018-Feb-18 04:01N 47°18' W 002°08'3 6.6
2018-Feb-18 03:31N 47°16' W 002°12'611.7
2018-Feb-18 03:00N 47°11' W 002°18'5 9.6
2018-Feb-18 02:31N 47°07' W 002°22'2 4.4
2018-Feb-18 02:00N 47°06' W 002°24'3 6.6
2018-Feb-18 01:30N 47°04' W 002°28'4 8.8
2018-Feb-18 01:01N 47°01' W 002°33'611.6
2018-Feb-18 00:31N 46°58' W 002°40'5414.1
2018-Feb-17 20:42N 46°25' W 003°42'313.9
2018-Feb-17 20:29N 46°24' W 003°46'813.6
2018-Feb-17 19:56N 46°20' W 003°56'48914.5
2018-Feb-16 10:09N 39°57' W 010°51'516.1
2018-Feb-16 09:52N 39°53' W 010°53'815.7
2018-Feb-16 09:21N 39°45' W 010°57'815.7
2018-Feb-16 08:50N 39°37' W 011°00'515.5
2018-Feb-16 08:29N 39°32' W 011°02'816.3
2018-Feb-16 08:01N 39°25' W 011°06'815.6
2018-Feb-16 07:30N 39°17' W 011°09'815.3
2018-Feb-16 07:00N 39°10' W 011°12'815.4
2018-Feb-16 06:29N 39°03' W 011°15'915.7
2018-Feb-16 05:53N 38°53' W 011°18'616.2
2018-Feb-16 05:30N 38°48' W 011°21'1116.1
2018-Feb-16 04:48N 38°37' W 011°26'616.1
2018-Feb-16 04:24N 38°31' W 011°29'2716.0
2018-Feb-16 02:43N 38°06' W 011°40'50916.2
2018-Feb-14 19:23N 30°03' W 014°55'616.1
2018-Feb-14 19:00N 29°57' W 014°57'816.5
2018-Feb-14 18:29N 29°49' W 015°00'816.3
2018-Feb-14 18:00N 29°41' W 015°03'815.9
2018-Feb-14 17:30N 29°34' W 015°06'815.4
2018-Feb-14 17:00N 29°27' W 015°09'815.3
2018-Feb-14 16:30N 29°20' W 015°13'815.3
2018-Feb-14 16:00N 29°14' W 015°19'815.3
2018-Feb-14 15:30N 29°09' W 015°25'815.4
2018-Feb-14 15:00N 29°03' W 015°31'815.6
2018-Feb-14 14:30N 28°58' W 015°37'815.5
2018-Feb-14 14:00N 28°52' W 015°43'815.6
2018-Feb-14 13:30N 28°46' W 015°50'815.8
2018-Feb-14 13:00N 28°41' W 015°56'816.4
2018-Feb-14 12:30N 28°35' W 016°02'714.4
2018-Feb-14 12:00N 28°30' W 016°08'1 2.0
2018-Feb-14 11:30N 28°29' W 016°09'2 3.3
2018-Feb-14 11:00N 28°28' W 016°07'2 3.7
2018-Feb-14 10:30N 28°29' W 016°09'1 1.2
2018-Feb-14 10:00N 28°29' W 016°09'1 1.2
2018-Feb-14 09:30N 28°28' W 016°08'2 3.9
2018-Feb-14 09:01N 28°27' W 016°07'3 6.4
2018-Feb-14 08:30N 28°25' W 016°04'612.2
2018-Feb-14 08:01N 28°21' W 015°58'815.5
2018-Feb-14 07:30N 28°14' W 016°01'816.9
2018-Feb-14 07:00N 28°07' W 016°07'20916.1
2018-Feb-13 18:03N 24°55' W 017°38'116.0
2018-Feb-13 18:00N 24°54' W 017°38'816.2
2018-Feb-13 17:30N 24°46' W 017°41'3014.7
2018-Feb-13 15:30N 24°18' W 017°53'816.0
2018-Feb-13 15:00N 24°11' W 017°56'816.0
2018-Feb-13 14:30N 24°04' W 017°59'  
2018-Feb-10 22:52N 07°51' W 015°38'617.1
2018-Feb-10 22:30N 07°49' W 015°33'2016.9
2018-Feb-10 21:19N 07°40' W 015°15'517.0
2018-Feb-10 21:00N 07°37' W 015°10'917.3
2018-Feb-10 20:30N 07°33' W 015°02'917.2
2018-Feb-10 20:00N 07°29' W 014°55'917.3
2018-Feb-10 19:30N 07°25' W 014°47'917.4
2018-Feb-10 18:59N 07°21' W 014°39'817.2
2018-Feb-10 18:30N 07°18' W 014°31'817.0
2018-Feb-10 18:00N 07°14' W 014°23'917.2
2018-Feb-10 17:30N 07°10' W 014°16'917.4
2018-Feb-10 17:00N 07°06' W 014°08'816.9
2018-Feb-10 16:30N 07°02' W 014°00'816.9
2018-Feb-10 16:00N 06°59' W 013°53'917.3
2018-Feb-10 15:30N 06°55' W 013°45'  
Track history (hours):
 
Tides and Currents Weather Stations Pressure Air Temp Water Temp Dewpoint Dewpoint Depression Visibility Wind Speed Wind Dir Waves Ship Positions

LNG Ondo

Last reported at 2018-Feb-19 08:29 UTC. Time now 2018-Feb-20 23:42 UTC.
Position N 46°53' W 002°51'.

Length 288 m; draft 9.3 m.

Type: Ship (hazmat cat B). MMSI: 310550000.

Date/timePositionNaut miles runAvg speedWind from/ knotsBaromVisibWave heightAir tempDewpointWater temp
2018-Feb-19 08:29N 46°53' W 002°51'919.6
2018-Feb-19 08:00N 46°60' W 002°42'1018.2
2018-Feb-19 07:28N 47°04' W 002°29'613.2
2018-Feb-19 07:00N 47°08' W 002°22'510.4
2018-Feb-19 06:30N 47°12' W 002°17'612.5
2018-Feb-19 06:00N 47°16' W 002°11'2 4.9
2018-Feb-19 05:30N 47°18' W 002°08'0 0.1
2018-Feb-19 05:00N 47°18' W 002°08'0 0.0
2018-Feb-18 20:09N 47°18' W 002°08'0 0.0
2018-Feb-18 19:33N 47°18' W 002°08'0 0.0
2018-Feb-18 19:21N 47°18' W 002°08'0 0.0
2018-Feb-18 18:57N 47°18' W 002°08'0 0.0
2018-Feb-18 17:45N 47°18' W 002°08'0 0.0
2018-Feb-18 17:27N 47°18' W 002°08'0 0.0
2018-Feb-18 15:21N 47°18' W 002°08'0 0.0
2018-Feb-18 14:57N 47°18' W 002°08'0 0.0
2018-Feb-18 09:33N 47°18' W 002°08'0 0.0
2018-Feb-18 04:45N 47°18' W 002°08'0 0.0
2018-Feb-18 04:30N 47°18' W 002°08'0 0.3
2018-Feb-18 04:01N 47°18' W 002°08'3 6.6
2018-Feb-18 03:31N 47°16' W 002°12'611.7
2018-Feb-18 03:00N 47°11' W 002°18'5 9.6
2018-Feb-18 02:31N 47°07' W 002°22'2 4.4
2018-Feb-18 02:00N 47°06' W 002°24'3 6.6
2018-Feb-18 01:30N 47°04' W 002°28'4 8.8
2018-Feb-18 01:01N 47°01' W 002°33'611.6
2018-Feb-18 00:31N 46°58' W 002°40'5414.1
2018-Feb-17 20:42N 46°25' W 003°42'313.9
2018-Feb-17 20:29N 46°24' W 003°46'813.6
2018-Feb-17 19:56N 46°20' W 003°56'48914.5
2018-Feb-16 10:09N 39°57' W 010°51'516.1
2018-Feb-16 09:52N 39°53' W 010°53'815.7
2018-Feb-16 09:21N 39°45' W 010°57'815.7
2018-Feb-16 08:50N 39°37' W 011°00'515.5
2018-Feb-16 08:29N 39°32' W 011°02'816.3
2018-Feb-16 08:01N 39°25' W 011°06'815.6
2018-Feb-16 07:30N 39°17' W 011°09'815.3
2018-Feb-16 07:00N 39°10' W 011°12'815.4
2018-Feb-16 06:29N 39°03' W 011°15'915.7
2018-Feb-16 05:53N 38°53' W 011°18'616.2
2018-Feb-16 05:30N 38°48' W 011°21'1116.1
2018-Feb-16 04:48N 38°37' W 011°26'616.1
2018-Feb-16 04:24N 38°31' W 011°29'2716.0
2018-Feb-16 02:43N 38°06' W 011°40'50916.2
2018-Feb-14 19:23N 30°03' W 014°55'616.1
2018-Feb-14 19:00N 29°57' W 014°57'816.5
2018-Feb-14 18:29N 29°49' W 015°00'816.3
2018-Feb-14 18:00N 29°41' W 015°03'815.9
2018-Feb-14 17:30N 29°34' W 015°06'815.4
2018-Feb-14 17:00N 29°27' W 015°09'815.3
2018-Feb-14 16:30N 29°20' W 015°13'815.3
2018-Feb-14 16:00N 29°14' W 015°19'815.3
2018-Feb-14 15:30N 29°09' W 015°25'815.4
2018-Feb-14 15:00N 29°03' W 015°31'815.6
2018-Feb-14 14:30N 28°58' W 015°37'815.5
2018-Feb-14 14:00N 28°52' W 015°43'815.6
2018-Feb-14 13:30N 28°46' W 015°50'815.8
2018-Feb-14 13:00N 28°41' W 015°56'816.4
2018-Feb-14 12:30N 28°35' W 016°02'714.4
2018-Feb-14 12:00N 28°30' W 016°08'1 2.0
2018-Feb-14 11:30N 28°29' W 016°09'2 3.3
2018-Feb-14 11:00N 28°28' W 016°07'2 3.7
2018-Feb-14 10:30N 28°29' W 016°09'1 1.2
2018-Feb-14 10:00N 28°29' W 016°09'1 1.2
2018-Feb-14 09:30N 28°28' W 016°08'2 3.9
2018-Feb-14 09:01N 28°27' W 016°07'3 6.4
2018-Feb-14 08:30N 28°25' W 016°04'612.2
2018-Feb-14 08:01N 28°21' W 015°58'815.5
2018-Feb-14 07:30N 28°14' W 016°01'816.9
2018-Feb-14 07:00N 28°07' W 016°07'20916.1
2018-Feb-13 18:03N 24°55' W 017°38'116.0
2018-Feb-13 18:00N 24°54' W 017°38'816.2
2018-Feb-13 17:30N 24°46' W 017°41'3014.7
2018-Feb-13 15:30N 24°18' W 017°53'816.0
2018-Feb-13 15:00N 24°11' W 017°56'816.0
2018-Feb-13 14:30N 24°04' W 017°59'  
2018-Feb-10 22:52N 07°51' W 015°38'617.1
2018-Feb-10 22:30N 07°49' W 015°33'2016.9
2018-Feb-10 21:19N 07°40' W 015°15'517.0
2018-Feb-10 21:00N 07°37' W 015°10'917.3
2018-Feb-10 20:30N 07°33' W 015°02'917.2
2018-Feb-10 20:00N 07°29' W 014°55'917.3
2018-Feb-10 19:30N 07°25' W 014°47'917.4
2018-Feb-10 18:59N 07°21' W 014°39'817.2
2018-Feb-10 18:30N 07°18' W 014°31'817.0
2018-Feb-10 18:00N 07°14' W 014°23'917.2
2018-Feb-10 17:30N 07°10' W 014°16'917.4
2018-Feb-10 17:00N 07°06' W 014°08'816.9
2018-Feb-10 16:30N 07°02' W 014°00'816.9
2018-Feb-10 16:00N 06°59' W 013°53'917.3
2018-Feb-10 15:30N 06°55' W 013°45'  

Dump ship's entire track history